Time;durP1;ratioP1;P1;durP2;ratioP2;P2;SDS_P1;SDS_P2;PMS_P1;PMS_P2;Temp;Humidity;BMP_temperature;BMP_pressure;BME280_temperature;BME280_humidity;BME280_pressure;Samples;Min_cycle;Max_cycle;Signal;HPM_P1;HPM_P2
2023/11/06 00:02:13;;;;;;;4.20;3.08;;;9.20;99.90;;;;;;5100715;28;20231;-62
2023/11/06 00:04:40;;;;;;;6.97;2.90;;;9.20;99.90;;;;;;5098876;28;20204;-61
2023/11/06 00:07:07;;;;;;;4.10;2.60;;;9.20;99.90;;;;;;5098111;28;20203;-63
2023/11/06 00:09:34;;;;;;;5.18;3.00;;;9.20;99.90;;;;;;5098177;28;20215;-62
2023/11/06 00:12:02;;;;;;;6.22;3.17;;;9.20;99.90;;;;;;5096452;28;20232;-62
2023/11/06 00:14:29;;;;;;;5.53;3.15;;;9.20;99.90;;;;;;5096733;28;20196;-60
2023/11/06 00:16:56;;;;;;;7.88;4.05;;;9.20;99.90;;;;;;5097704;28;20223;-62
2023/11/06 00:19:23;;;;;;;4.05;2.88;;;9.30;99.90;;;;;;5101500;28;20200;-61
2023/11/06 00:21:49;;;;;;;5.13;3.15;;;9.40;99.90;;;;;;5102661;28;20295;-60
2023/11/06 00:24:16;;;;;;;7.13;3.80;;;9.50;99.90;;;;;;5101895;28;20200;-61
2023/11/06 00:26:45;;;;;;;6.53;3.70;;;9.50;99.90;;;;;;5101619;28;20206;-61
2023/11/06 00:29:13;;;;;;;3.70;3.40;;;9.60;99.90;;;;;;5106675;28;20213;-62
2023/11/06 00:31:41;;;;;;;9.15;3.55;;;9.50;99.90;;;;;;5105105;28;20224;-62
2023/11/06 00:34:08;;;;;;;6.30;3.40;;;9.50;99.90;;;;;;5106511;28;20212;-61
2023/11/06 00:36:35;;;;;;;5.47;3.65;;;9.50;99.90;;;;;;5104729;28;20287;-62
2023/11/06 00:39:02;;;;;;;4.72;3.05;;;9.40;99.90;;;;;;5104688;28;20591;-63
2023/11/06 00:41:29;;;;;;;5.95;3.75;;;9.40;99.90;;;;;;5103651;28;20634;-61
2023/11/06 00:43:56;;;;;;;4.38;3.25;;;9.30;99.90;;;;;;5105559;28;20253;-63
2023/11/06 00:46:24;;;;;;;6.47;4.72;;;9.30;99.90;;;;;;5106973;28;20207;-61
2023/11/06 00:48:51;;;;;;;3.53;3.10;;;9.30;99.90;;;;;;5105602;28;20220;-61
2023/11/06 00:51:17;;;;;;;4.55;3.45;;;9.20;99.90;;;;;;5108005;28;20200;-61
2023/11/06 00:53:44;;;;;;;4.60;3.30;;;9.20;99.90;;;;;;5105321;28;20196;-63
2023/11/06 00:56:11;;;;;;;4.30;2.75;;;9.20;99.90;;;;;;5105408;28;20287;-62
2023/11/06 00:58:38;;;;;;;10.20;3.72;;;9.20;99.90;;;;;;5107633;28;20230;-61
2023/11/06 01:01:05;;;;;;;6.80;3.67;;;9.10;99.90;;;;;;5107333;28;20200;-62
2023/11/06 01:03:33;;;;;;;5.00;2.97;;;9.10;99.90;;;;;;5104683;28;20231;-61
2023/11/06 01:06:00;;;;;;;4.70;3.45;;;9.10;99.90;;;;;;5107539;28;20296;-62
2023/11/06 01:08:26;;;;;;;5.32;2.95;;;9.10;99.90;;;;;;5105804;28;20667;-62
2023/11/06 01:10:53;;;;;;;4.55;3.45;;;9.10;99.90;;;;;;5106727;28;20700;-61
2023/11/06 01:13:20;;;;;;;9.82;3.30;;;9.10;99.90;;;;;;5108136;28;20230;-61
2023/11/06 01:15:47;;;;;;;6.40;2.90;;;9.10;99.90;;;;;;5104732;28;20204;-60
2023/11/06 01:18:13;;;;;;;3.10;2.85;;;9.10;99.90;;;;;;5103801;28;20238;-62
2023/11/06 01:20:42;;;;;;;9.43;3.13;;;9.10;99.90;;;;;;5105508;28;20204;-61
2023/11/06 01:23:08;;;;;;;3.85;3.38;;;9.00;99.90;;;;;;5104237;28;20224;-62
2023/11/06 01:25:35;;;;;;;6.28;3.00;;;9.00;99.90;;;;;;5107886;28;20200;-61
2023/11/06 01:28:03;;;;;;;6.25;3.22;;;9.10;99.90;;;;;;5107154;28;20226;-61
2023/11/06 01:30:30;;;;;;;3.47;3.15;;;9.10;99.90;;;;;;5106952;28;20200;-61
2023/11/06 01:32:57;;;;;;;6.80;3.70;;;9.10;99.90;;;;;;5105748;28;20250;-62
2023/11/06 01:35:26;;;;;;;16.15;3.83;;;9.10;99.90;;;;;;5107766;28;20204;-61
2023/11/06 01:37:54;;;;;;;4.38;3.55;;;9.20;99.90;;;;;;5105394;28;20223;-61
2023/11/06 01:40:21;;;;;;;4.25;3.10;;;9.20;99.90;;;;;;5098521;28;20211;-61
2023/11/06 01:42:48;;;;;;;6.05;3.20;;;9.20;99.90;;;;;;5098892;28;20220;-60
2023/11/06 01:45:15;;;;;;;3.60;3.30;;;9.30;99.90;;;;;;5097984;28;20204;-61
2023/11/06 01:47:42;;;;;;;6.03;3.75;;;9.30;99.90;;;;;;5097410;28;20196;-61
2023/11/06 01:50:11;;;;;;;5.05;3.35;;;9.20;99.90;;;;;;5097390;28;20223;-60
2023/11/06 01:52:38;;;;;;;5.72;3.70;;;9.20;99.90;;;;;;5098135;28;20216;-62
2023/11/06 01:55:07;;;;;;;7.20;3.15;;;9.20;99.90;;;;;;5102169;28;20205;-61
2023/11/06 01:57:34;;;;;;;7.63;3.88;;;9.30;99.90;;;;;;5099769;28;20249;-61
2023/11/06 02:00:01;;;;;;;6.90;3.10;;;9.30;99.90;;;;;;5097835;28;20200;-62
2023/11/06 02:02:29;;;;;;;4.05;3.47;;;9.30;99.90;;;;;;5105422;28;20223;-62
2023/11/06 02:04:56;;;;;;;7.03;3.40;;;9.30;99.90;;;;;;5108926;28;20204;-61
2023/11/06 02:07:23;;;;;;;9.35;3.40;;;9.30;99.90;;;;;;5109646;28;20203;-62
2023/11/06 02:09:50;;;;;;;7.60;3.67;;;9.40;99.90;;;;;;5106960;28;20192;-61
2023/11/06 02:12:18;;;;;;;4.35;3.70;;;9.50;99.90;;;;;;5105512;28;20725;-62
2023/11/06 02:14:52;;;;;;;4.07;3.28;;;9.60;99.90;;;;;;5103386;28;20200;-61
2023/11/06 02:17:19;;;;;;;3.70;3.40;;;9.60;99.90;;;;;;5107963;28;20212;-61
2023/11/06 02:19:45;;;;;;;8.15;3.17;;;9.70;99.90;;;;;;5107566;28;20298;-61
2023/11/06 02:22:16;;;;;;;5.28;3.42;;;9.70;99.90;;;;;;5103420;28;20231;-62
2023/11/06 02:24:44;;;;;;;6.15;3.50;;;9.70;99.90;;;;;;5102395;28;20188;-62
2023/11/06 02:27:11;;;;;;;6.13;3.83;;;9.80;99.90;;;;;;5104345;28;20223;-62
2023/11/06 02:29:38;;;;;;;5.40;3.20;;;9.80;99.90;;;;;;5105486;28;20291;-61
2023/11/06 02:32:05;;;;;;;7.25;3.65;;;9.80;99.90;;;;;;5103484;28;20220;-62
2023/11/06 02:34:32;;;;;;;4.30;3.53;;;9.70;99.90;;;;;;5102126;28;20204;-62
2023/11/06 02:36:58;;;;;;;4.40;3.45;;;9.60;99.90;;;;;;5101843;28;20210;-61
2023/11/06 02:39:25;;;;;;;10.15;3.78;;;9.60;99.90;;;;;;5102410;28;20226;-62
2023/11/06 02:41:54;;;;;;;8.18;4.90;;;9.60;99.90;;;;;;5103074;28;20216;-62
2023/11/06 02:44:20;;;;;;;8.43;4.18;;;9.60;99.90;;;;;;5102841;28;20200;-61
2023/11/06 02:46:47;;;;;;;4.38;3.97;;;9.70;99.90;;;;;;5099045;28;20200;-61
2023/11/06 02:49:14;;;;;;;5.10;4.57;;;9.70;99.90;;;;;;5096400;28;20200;-60
2023/11/06 02:51:41;;;;;;;5.63;3.90;;;9.80;99.90;;;;;;5094885;28;20227;-62
2023/11/06 02:54:08;;;;;;;5.18;4.10;;;9.70;99.90;;;;;;5096050;28;20561;-62
2023/11/06 02:56:35;;;;;;;8.82;4.20;;;9.70;99.90;;;;;;5096075;28;20226;-62
2023/11/06 02:59:03;;;;;;;4.97;4.47;;;9.60;99.90;;;;;;5095890;28;20224;-62
2023/11/06 03:01:31;;;;;;;5.25;4.40;;;9.60;99.90;;;;;;5096281;28;20204;-62
2023/11/06 03:03:58;;;;;;;7.70;4.10;;;9.60;99.90;;;;;;5096151;28;20200;-62
2023/11/06 03:06:27;;;;;;;7.60;3.97;;;9.50;99.90;;;;;;5095368;28;20446;-61
2023/11/06 03:08:55;;;;;;;8.10;4.05;;;9.50;99.90;;;;;;5095290;28;20204;-61
2023/11/06 03:11:22;;;;;;;5.00;3.90;;;9.50;99.90;;;;;;5094820;28;20208;-61
2023/11/06 03:13:49;;;;;;;3.90;3.50;;;9.40;99.90;;;;;;5095153;28;20215;-60
2023/11/06 03:16:18;;;;;;;7.55;3.92;;;9.40;99.90;;;;;;5095029;28;20206;-61
2023/11/06 03:18:45;;;;;;;9.35;4.05;;;9.40;99.90;;;;;;5095107;28;20220;-62
2023/11/06 03:21:11;;;;;;;7.47;3.67;;;9.40;99.90;;;;;;5095278;28;20287;-60
2023/11/06 03:23:38;;;;;;;4.18;3.50;;;9.50;99.90;;;;;;5095032;28;20220;-62
2023/11/06 03:26:05;;;;;;;6.88;4.20;;;9.50;99.90;;;;;;5095165;28;20200;-60
2023/11/06 03:28:34;;;;;;;5.07;3.70;;;9.40;99.90;;;;;;5095634;28;20218;-61
2023/11/06 03:31:00;;;;;;;6.10;3.60;;;9.50;99.90;;;;;;5095499;28;20291;-61
2023/11/06 03:33:28;;;;;;;4.32;3.90;;;9.50;99.90;;;;;;5094876;28;20226;-63
2023/11/06 03:35:55;;;;;;;9.48;4.30;;;9.50;99.90;;;;;;5094468;28;20196;-62
2023/11/06 03:38:22;;;;;;;9.23;3.90;;;9.50;99.90;;;;;;5094398;28;20223;-61
2023/11/06 03:40:49;;;;;;;4.88;4.13;;;9.50;99.90;;;;;;5095463;28;20208;-62
2023/11/06 03:43:15;;;;;;;9.85;3.83;;;9.50;99.90;;;;;;5094696;28;20224;-60
2023/11/06 03:45:42;;;;;;;6.07;3.45;;;9.50;99.90;;;;;;5093962;28;20669;-61
2023/11/06 03:48:09;;;;;;;4.60;3.70;;;9.50;99.90;;;;;;5094315;28;20200;-61
2023/11/06 03:50:42;;;;;;;8.00;3.95;;;9.40;99.90;;;;;;5094199;28;20197;-60
2023/11/06 03:53:09;;;;;;;5.40;3.58;;;9.40;99.90;;;;;;5093954;28;20228;-61
2023/11/06 03:55:36;;;;;;;6.05;3.92;;;9.40;99.90;;;;;;5094187;28;20197;-62
2023/11/06 03:58:03;;;;;;;9.93;3.92;;;9.40;99.90;;;;;;5094146;28;20231;-61
2023/11/06 04:00:30;;;;;;;3.85;3.50;;;9.50;99.90;;;;;;5093840;28;20200;-62
2023/11/06 04:02:57;;;;;;;6.03;3.75;;;9.50;99.90;;;;;;5093875;28;20227;-61
2023/11/06 04:05:24;;;;;;;4.10;3.70;;;9.60;99.90;;;;;;5096471;28;20211;-62
2023/11/06 04:07:52;;;;;;;5.50;3.58;;;9.70;99.90;;;;;;5103306;28;20657;-61
2023/11/06 04:12:29;;;;;;;7.78;3.40;;;9.70;99.90;;;;;;5091502;28;20562;-61
2023/11/06 04:14:56;;;;;;;6.93;3.80;;;9.70;99.90;;;;;;5091191;28;20599;-61
2023/11/06 04:17:24;;;;;;;6.47;3.75;;;9.70;99.90;;;;;;5090864;28;20254;-62
2023/11/06 04:19:50;;;;;;;4.05;3.65;;;9.60;99.90;;;;;;5091096;28;20227;-62
2023/11/06 04:22:17;;;;;;;4.80;4.10;;;9.60;99.90;;;;;;5090847;28;20606;-61
2023/11/06 04:24:44;;;;;;;6.65;4.50;;;9.50;99.90;;;;;;5091124;28;20210;-61
2023/11/06 04:27:11;;;;;;;6.28;3.72;;;9.50;99.90;;;;;;5090370;28;20204;-61
2023/11/06 04:29:39;;;;;;;7.32;4.10;;;9.50;99.90;;;;;;5090977;28;20207;-60
2023/11/06 04:32:06;;;;;;;5.93;3.70;;;9.40;99.90;;;;;;5090602;28;20228;-61
2023/11/06 04:34:32;;;;;;;7.68;4.60;;;9.40;99.90;;;;;;5090660;28;20211;-61
2023/11/06 04:36:59;;;;;;;5.35;3.90;;;9.30;99.90;;;;;;5092645;28;20283;-61
2023/11/06 04:39:26;;;;;;;5.05;4.22;;;9.30;99.90;;;;;;5092968;28;20201;-61
2023/11/06 04:41:53;;;;;;;6.40;3.92;;;9.30;99.90;;;;;;5092704;28;20217;-61
2023/11/06 04:44:20;;;;;;;6.82;3.88;;;9.30;99.90;;;;;;5090628;28;20207;-62
2023/11/06 04:46:48;;;;;;;4.10;3.80;;;9.30;99.90;;;;;;5091770;28;20294;-61
2023/11/06 04:49:15;;;;;;;4.10;3.80;;;9.40;99.90;;;;;;5091057;28;20300;-61
2023/11/06 04:51:42;;;;;;;7.05;3.53;;;9.50;99.90;;;;;;5091434;28;20228;-62
2023/11/06 04:54:08;;;;;;;5.75;3.58;;;9.60;99.90;;;;;;5092586;28;20204;-61
2023/11/06 04:56:41;;;;;;;3.47;3.17;;;9.60;99.90;;;;;;5099117;28;20201;-61
2023/11/06 04:59:08;;;;;;;6.95;3.80;;;9.70;99.90;;;;;;5098299;28;20188;-61
2023/11/06 05:01:37;;;;;;;3.20;2.70;;;9.80;99.90;;;;;;5097644;28;20200;-61
2023/11/06 05:04:05;;;;;;;8.60;3.17;;;9.80;99.90;;;;;;5099387;28;20222;-61
2023/11/06 05:06:32;;;;;;;4.50;3.30;;;9.90;99.90;;;;;;5097072;28;20571;-61
2023/11/06 05:09:00;;;;;;;4.28;3.30;;;9.90;99.90;;;;;;5097001;28;20197;-61
2023/11/06 05:11:27;;;;;;;5.40;3.55;;;10.00;99.90;;;;;;5091719;28;20311;-61
2023/11/06 05:13:54;;;;;;;6.00;3.47;;;10.00;99.90;;;;;;5090993;28;20197;-62
2023/11/06 05:16:21;;;;;;;4.60;3.50;;;10.00;99.90;;;;;;5090100;28;20201;-61
2023/11/06 05:18:48;;;;;;;4.00;3.67;;;10.00;99.90;;;;;;5090920;28;20429;-62
2023/11/06 05:21:23;;;;;;;4.72;3.10;;;9.90;99.90;;;;;;5090800;28;20434;-62
2023/11/06 05:23:50;;;;;;;6.53;3.20;;;9.90;99.90;;;;;;5077258;28;20185;-60
2023/11/06 05:26:17;;;;;;;5.47;3.60;;;9.80;99.90;;;;;;5077334;28;20213;-61
2023/11/06 05:28:44;;;;;;;6.95;4.50;;;9.70;99.90;;;;;;5077504;28;20292;-61
2023/11/06 05:31:11;;;;;;;4.50;4.10;;;9.70;99.90;;;;;;5076787;28;20236;-61
2023/11/06 05:33:39;;;;;;;5.50;4.77;;;9.60;99.90;;;;;;5076680;28;20221;-60
2023/11/06 05:36:07;;;;;;;5.80;4.00;;;9.60;99.90;;;;;;5077839;28;20869;-60
2023/11/06 05:38:35;;;;;;;5.15;4.05;;;9.60;99.90;;;;;;5080869;28;20212;-61
2023/11/06 05:41:02;;;;;;;4.70;3.15;;;9.60;99.90;;;;;;5083613;28;20232;-61
2023/11/06 05:43:29;;;;;;;5.88;3.50;;;9.70;99.90;;;;;;5082983;28;20224;-61
2023/11/06 05:45:57;;;;;;;7.13;3.40;;;9.70;99.90;;;;;;5080383;28;20227;-60
2023/11/06 05:48:23;;;;;;;4.93;3.10;;;9.70;99.90;;;;;;5079021;28;20251;-61
2023/11/06 05:50:50;;;;;;;4.75;4.22;;;9.70;99.90;;;;;;5078380;28;20239;-60
2023/11/06 05:53:17;;;;;;;7.65;3.90;;;9.70;99.90;;;;;;5078920;28;20225;-61
2023/11/06 05:55:47;;;;;;;3.80;3.40;;;9.60;99.90;;;;;;5078485;28;20207;-61
2023/11/06 05:58:14;;;;;;;5.00;3.30;;;9.50;99.90;;;;;;5078405;28;20190;-61
2023/11/06 06:00:41;;;;;;;6.20;3.70;;;9.50;99.90;;;;;;5087700;28;20201;-61
2023/11/06 06:03:08;;;;;;;5.68;3.40;;;9.50;99.90;;;;;;5087948;28;20228;-60
2023/11/06 06:05:35;;;;;;;7.22;3.20;;;9.50;99.90;;;;;;5087191;28;20208;-61
2023/11/06 06:08:02;;;;;;;4.55;3.67;;;9.50;99.90;;;;;;5084986;28;20205;-61
2023/11/06 06:10:29;;;;;;;7.30;3.35;;;9.50;99.90;;;;;;5084491;28;20216;-61
2023/11/06 06:12:57;;;;;;;3.97;3.45;;;9.40;99.90;;;;;;5085493;28;20319;-61
2023/11/06 06:15:24;;;;;;;4.85;4.00;;;9.40;99.90;;;;;;5092363;28;20292;-61
2023/11/06 06:17:50;;;;;;;4.20;3.80;;;9.30;99.90;;;;;;5088486;28;20209;-61
2023/11/06 06:20:17;;;;;;;4.72;3.85;;;9.30;99.90;;;;;;5083815;28;20211;-62
2023/11/06 06:22:46;;;;;;;9.75;4.75;;;9.30;99.90;;;;;;5078960;28;20585;-61
2023/11/06 06:25:15;;;;;;;5.22;4.10;;;9.30;99.90;;;;;;5075658;28;20278;-60
2023/11/06 06:27:42;;;;;;;7.60;4.57;;;9.30;99.90;;;;;;5075657;28;20496;-61
2023/11/06 06:30:12;;;;;;;5.10;4.70;;;9.30;99.90;;;;;;5078138;28;20223;-60
2023/11/06 06:32:39;;;;;;;4.68;4.03;;;9.40;99.90;;;;;;5077714;28;20766;-61
2023/11/06 06:35:06;;;;;;;7.15;4.55;;;9.40;99.90;;;;;;5077898;28;20535;-61
2023/11/06 06:37:33;;;;;;;4.43;4.03;;;9.50;99.90;;;;;;5077621;28;20207;-61
2023/11/06 06:40:00;;;;;;;3.85;3.55;;;9.60;99.90;;;;;;5077253;28;20208;-60
2023/11/06 06:42:28;;;;;;;5.03;3.67;;;9.70;99.90;;;;;;5078049;28;20221;-61
2023/11/06 06:44:54;;;;;;;9.52;4.28;;;9.70;99.90;;;;;;5079430;28;20208;-61
2023/11/06 06:47:22;;;;;;;5.53;3.75;;;9.80;99.90;;;;;;5080072;28;20205;-61
2023/11/06 06:49:49;;;;;;;7.70;5.18;;;9.80;99.90;;;;;;5078334;28;20279;-61
2023/11/06 06:52:16;;;;;;;5.97;3.97;;;9.90;99.90;;;;;;5076384;28;20225;-61
2023/11/06 06:54:43;;;;;;;3.90;3.60;;;9.90;99.90;;;;;;5076593;28;20443;-61
2023/11/06 06:57:10;;;;;;;5.68;3.78;;;9.90;99.90;;;;;;5075460;28;20944;-61
2023/11/06 06:59:36;;;;;;;3.83;3.50;;;9.90;99.90;;;;;;5076806;28;20257;-58
2023/11/06 07:02:04;;;;;;;4.40;3.23;;;10.00;99.90;;;;;;5076210;28;20232;-60
2023/11/06 07:04:32;;;;;;;4.93;4.15;;;10.00;99.90;;;;;;5076173;28;20431;-59
2023/11/06 07:06:59;;;;;;;3.63;3.33;;;10.00;99.90;;;;;;5076313;28;20201;-61
2023/11/06 07:09:31;;;;;;;5.17;4.07;;;10.10;99.90;;;;;;5075251;28;20821;-62
2023/11/06 07:11:58;;;;;;;5.67;4.30;;;10.20;99.90;;;;;;5074867;28;20491;-60
2023/11/06 07:14:25;;;;;;;5.37;3.90;;;10.20;99.90;;;;;;5075448;28;20794;-62
2023/11/06 07:16:52;;;;;;;4.00;3.50;;;10.30;99.90;;;;;;5078540;28;20497;-61
2023/11/06 07:19:19;;;;;;;4.53;3.20;;;10.40;99.90;;;;;;5075255;28;20439;-59
2023/11/06 07:21:47;;;;;;;6.33;3.37;;;10.50;99.90;;;;;;5075121;28;20542;-62
2023/11/06 07:24:14;;;;;;;5.40;3.25;;;10.60;99.90;;;;;;5075798;28;20442;-63
2023/11/06 07:26:41;;;;;;;6.23;3.23;;;10.60;99.90;;;;;;5076445;28;20227;-62
2023/11/06 07:29:07;;;;;;;8.87;4.03;;;10.70;99.90;;;;;;5078508;28;20439;-63
2023/11/06 07:31:34;;;;;;;3.53;3.03;;;10.70;99.90;;;;;;5075092;28;20486;-63
2023/11/06 07:34:01;;;;;;;3.13;2.67;;;10.60;99.90;;;;;;5074226;28;20449;-63
2023/11/06 07:36:28;;;;;;;5.73;3.10;;;10.60;99.90;;;;;;5074300;28;20439;-63
2023/11/06 07:38:56;;;;;;;4.10;3.10;;;10.60;99.90;;;;;;5074146;28;20583;-63
2023/11/06 07:41:24;;;;;;;4.57;2.57;;;10.60;99.90;;;;;;5074814;28;20444;-62
2023/11/06 07:43:50;;;;;;;6.77;3.50;;;10.60;99.90;;;;;;5074343;28;20534;-63
2023/11/06 07:46:21;;;;;;;2.87;2.50;;;10.60;99.90;;;;;;5074149;28;20537;-64
2023/11/06 07:48:49;;;;;;;3.30;3.00;;;10.70;99.90;;;;;;5074319;28;20450;-62
2023/11/06 07:51:15;;;;;;;4.00;2.67;;;10.70;99.90;;;;;;5074739;28;20458;-64
2023/11/06 07:53:42;;;;;;;3.60;2.90;;;10.80;99.90;;;;;;5075976;28;20439;-62
2023/11/06 07:56:12;;;;;;;5.33;2.80;;;10.80;99.90;;;;;;5080415;28;20821;-63
2023/11/06 07:58:41;;;;;;;4.80;3.30;;;10.80;99.90;;;;;;5078887;28;20945;-61
2023/11/06 08:01:08;;;;;;;3.57;3.27;;;10.80;99.90;;;;;;5074665;28;20443;-62
2023/11/06 08:03:36;;;;;;;5.37;3.27;;;10.80;99.90;;;;;;5074215;28;20466;-63
2023/11/06 08:06:03;;;;;;;5.13;3.10;;;10.90;99.90;;;;;;5074227;28;20454;-62
2023/11/06 08:08:32;;;;;;;4.00;2.97;;;10.90;99.90;;;;;;5074517;28;20453;-61
2023/11/06 08:10:59;;;;;;;7.77;2.80;;;11.00;99.90;;;;;;5073877;28;20460;-60
2023/11/06 08:13:27;;;;;;;3.30;3.00;;;11.10;99.90;;;;;;5074241;28;20560;-62
2023/11/06 08:15:53;;;;;;;3.63;2.30;;;11.10;99.90;;;;;;5074059;28;20809;-61
2023/11/06 08:18:20;;;;;;;4.33;2.87;;;11.10;99.90;;;;;;5074263;28;20439;-62
2023/11/06 08:20:47;;;;;;;6.87;2.70;;;11.20;99.90;;;;;;5073607;28;20832;-62
2023/11/06 08:23:14;;;;;;;5.40;2.87;;;11.20;99.90;;;;;;5074754;28;20463;-62
2023/11/06 08:25:40;;;;;;;3.00;2.67;;;11.30;99.90;;;;;;5073906;28;20440;-62
2023/11/06 08:28:07;;;;;;;5.83;3.13;;;11.30;99.90;;;;;;5073763;28;20439;-61
2023/11/06 08:30:35;;;;;;;4.23;2.90;;;11.30;99.90;;;;;;5074577;28;20532;-61
2023/11/06 08:33:02;;;;;;;3.53;2.50;;;11.40;99.90;;;;;;5073057;28;20479;-61
2023/11/06 08:35:29;;;;;;;8.10;3.27;;;11.40;99.90;;;;;;5073252;28;20443;-62
2023/11/06 08:37:56;;;;;;;6.43;2.60;;;11.40;99.90;;;;;;5073138;28;20443;-62
2023/11/06 08:40:22;;;;;;;4.50;3.13;;;11.50;99.90;;;;;;5073633;28;20450;-62
2023/11/06 08:42:49;;;;;;;4.30;2.73;;;11.50;99.90;;;;;;5073264;28;20494;-63
2023/11/06 08:45:16;;;;;;;4.57;2.83;;;11.50;99.90;;;;;;5073816;28;20444;-65
2023/11/06 08:47:44;;;;;;;3.37;2.27;;;11.60;99.90;;;;;;5075467;28;20801;-63
2023/11/06 08:50:12;;;;;;;4.17;2.40;;;11.60;99.90;;;;;;5073876;28;20443;-62
2023/11/06 08:52:38;;;;;;;7.00;2.90;;;11.70;99.90;;;;;;5073312;28;20483;-63
2023/11/06 08:55:06;;;;;;;3.00;2.10;;;11.70;99.90;;;;;;5073513;28;20439;-63
2023/11/06 08:57:33;;;;;;;4.53;2.50;;;11.80;99.90;;;;;;5074087;28;20960;-62
2023/11/06 09:00:01;;;;;;;2.63;2.37;;;11.90;99.90;;;;;;5077763;28;20895;-63
2023/11/06 09:02:28;;;;;;;6.10;2.53;;;12.00;99.90;;;;;;5079212;28;20495;-63
2023/11/06 09:04:56;;;;;;;3.97;2.20;;;12.00;99.90;;;;;;5078302;28;20450;-62
2023/11/06 09:07:24;;;;;;;3.00;1.80;;;11.90;99.90;;;;;;5080435;28;20450;-63
2023/11/06 09:09:51;;;;;;;5.03;2.30;;;11.90;99.90;;;;;;5079161;28;20439;-62
2023/11/06 09:12:18;;;;;;;3.10;1.90;;;11.90;99.90;;;;;;5079601;28;20486;-63
2023/11/06 09:14:44;;;;;;;5.30;2.07;;;11.90;99.90;;;;;;5080527;28;20470;-63
2023/11/06 09:17:12;;;;;;;3.00;1.70;;;11.80;99.90;;;;;;5077481;28;20442;-64
2023/11/06 09:19:39;;;;;;;3.73;1.97;;;11.80;99.90;;;;;;5077097;28;20496;-62
2023/11/06 09:22:07;;;;;;;6.30;2.27;;;11.80;99.90;;;;;;5077880;28;20479;-63
2023/11/06 09:24:34;;;;;;;3.70;2.13;;;11.80;99.90;;;;;;5077278;28;20442;-63
2023/11/06 09:27:01;;;;;;;6.13;1.83;;;11.70;99.90;;;;;;5079145;28;20445;-62
2023/11/06 09:29:27;;;;;;;5.40;2.30;;;11.80;99.90;;;;;;5079861;28;20917;-62
2023/11/06 09:31:54;;;;;;;5.17;1.77;;;11.80;99.90;;;;;;5077763;28;20994;-63
2023/11/06 09:34:21;;;;;;;6.13;2.03;;;11.70;99.90;;;;;;5078517;28;21014;-62
2023/11/06 09:36:48;;;;;;;10.30;2.37;;;11.70;99.90;;;;;;5078856;28;20826;-63
2023/11/06 09:39:17;;;;;;;4.87;1.93;;;11.70;99.90;;;;;;5078687;28;20451;-63
2023/11/06 09:41:44;;;;;;;4.30;2.00;;;11.70;99.90;;;;;;5078220;28;20459;-62
2023/11/06 09:44:11;;;;;;;6.77;2.30;;;11.70;99.90;;;;;;5079216;28;20447;-61
2023/11/06 09:46:40;;;;;;;6.70;1.80;;;11.80;99.90;;;;;;5082790;28;20449;-63
2023/11/06 09:49:14;;;;;;;5.37;2.93;;;11.80;99.90;;;;;;5083021;28;20443;-63
2023/11/06 09:51:43;;;;;;;5.70;2.10;;;11.80;99.90;;;;;;5081867;28;20964;-62
2023/11/06 09:54:11;;;;;;;4.53;2.10;;;11.80;99.90;;;;;;5081607;28;20483;-63
2023/11/06 09:56:42;;;;;;;8.20;2.33;;;11.80;99.90;;;;;;5080767;28;20836;-62
2023/11/06 09:59:09;;;;;;;6.73;2.37;;;11.90;99.90;;;;;;5088416;28;20492;-61
2023/11/06 10:01:36;;;;;;;7.30;2.20;;;11.90;99.90;;;;;;5080786;28;20517;-61
2023/11/06 10:04:04;;;;;;;7.83;2.27;;;11.80;99.90;;;;;;5076915;28;20496;-62
2023/11/06 10:06:31;;;;;;;6.30;2.20;;;11.90;99.90;;;;;;5076193;28;20447;-63
2023/11/06 10:08:58;;;;;;;4.73;2.13;;;12.00;99.90;;;;;;5075623;28;20526;-63
2023/11/06 10:11:26;;;;;;;6.33;2.07;;;12.20;99.90;;;;;;5075524;28;20893;-62
2023/11/06 10:13:56;;;;;;;6.03;2.13;;;12.30;99.90;;;;;;5075744;28;20529;-61
2023/11/06 10:16:24;;;;;;;5.10;2.00;;;12.40;99.90;;;;;;5076896;28;20427;-62
2023/11/06 10:18:51;;;;;;;4.57;2.43;;;12.40;99.90;;;;;;5076970;28;20443;-61
2023/11/06 10:21:28;;;;;;;4.80;2.37;;;12.40;99.90;;;;;;5077365;28;20454;-63
2023/11/06 10:23:59;;;;;;;4.47;1.77;;;12.40;99.90;;;;;;5075990;28;20443;-62
2023/11/06 10:26:31;;;;;;;3.70;2.13;;;12.40;99.90;;;;;;5075798;28;20437;-62
2023/11/06 10:29:10;;;;;;;4.80;2.13;;;12.40;99.90;;;;;;5075827;28;20502;-63
2023/11/06 10:31:39;;;;;;;3.97;1.70;;;12.40;99.90;;;;;;5076323;28;20508;-64
2023/11/06 10:34:25;;;;;;;10.33;2.40;;;12.50;99.90;;;;;;5076965;28;20558;-63
2023/11/06 10:37:03;;;;;;;7.43;1.80;;;12.60;99.90;;;;;;5075994;28;20431;-64
2023/11/06 10:39:30;;;;;;;5.17;1.80;;;12.80;99.90;;;;;;5076887;28;20439;-62
2023/11/06 10:42:01;;;;;;;5.57;2.40;;;12.90;99.90;;;;;;5075452;28;20466;-61
2023/11/06 10:44:36;;;;;;;6.30;2.10;;;13.00;99.90;;;;;;5075526;28;20441;-62
2023/11/06 10:47:06;;;;;;;5.80;1.93;;;13.10;99.90;;;;;;5074941;28;20797;-62
2023/11/06 10:49:35;;;;;;;6.63;3.03;;;13.10;99.90;;;;;;5075472;28;20535;-63
2023/11/06 10:52:04;;;;;;;6.97;1.93;;;13.10;99.70;;;;;;5075335;28;20459;-62
2023/11/06 10:54:32;;;;;;;7.43;2.43;;;13.10;99.50;;;;;;5075668;28;20489;-62
2023/11/06 10:57:00;;;;;;;5.67;2.23;;;13.10;99.50;;;;;;5075876;28;20443;-62
2023/11/06 10:59:29;;;;;;;8.27;2.90;;;13.20;99.30;;;;;;5076393;28;20439;-63
2023/11/06 11:01:57;;;;;;;6.53;2.50;;;13.30;98.90;;;;;;5075348;28;20463;-63
2023/11/06 11:04:25;;;;;;;3.90;2.40;;;13.30;98.50;;;;;;5076051;28;20553;-64
2023/11/06 11:06:52;;;;;;;3.93;1.70;;;13.30;98.20;;;;;;5075992;28;20978;-62
2023/11/06 11:09:20;;;;;;;5.70;2.53;;;13.30;97.90;;;;;;5075857;28;20538;-60
2023/11/06 11:11:47;;;;;;;4.70;2.63;;;13.20;97.50;;;;;;5076013;28;20998;-63
2023/11/06 11:14:14;;;;;;;6.10;2.23;;;13.20;97.20;;;;;;5076124;28;20489;-63
2023/11/06 11:16:45;;;;;;;8.27;2.53;;;13.10;96.90;;;;;;5078558;28;20439;-63
2023/11/06 11:19:27;;;;;;;6.07;2.80;;;13.10;96.70;;;;;;5076499;28;20478;-63
2023/11/06 11:22:02;;;;;;;9.37;3.30;;;12.90;96.70;;;;;;5076491;28;20501;-63
2023/11/06 11:24:49;;;;;;;6.23;3.10;;;12.70;96.70;;;;;;5077067;28;20451;-64
2023/11/06 11:27:17;;;;;;;9.37;2.93;;;12.60;97.00;;;;;;5076129;28;20451;-62
2023/11/06 11:30:08;;;;;;;9.90;2.67;;;12.50;97.40;;;;;;5076169;28;20530;-63
2023/11/06 11:32:58;;;;;;;9.83;3.00;;;12.40;97.40;;;;;;5075489;28;20479;-62
2023/11/06 11:36:04;;;;;;;9.77;3.43;;;12.40;97.80;;;;;;5072498;28;20862;-62
2023/11/06 11:38:35;;;;;;;4.53;2.60;;;12.40;97.90;;;;;;5076453;28;20947;-63
2023/11/06 11:41:14;;;;;;;6.67;2.17;;;12.40;97.90;;;;;;5077462;28;20466;-62
2023/11/06 11:43:41;;;;;;;4.67;2.70;;;12.50;97.90;;;;;;5076141;28;20450;-63
2023/11/06 11:46:38;;;;;;;3.90;2.40;;;12.60;97.80;;;;;;5075921;28;20449;-62
2023/11/06 11:49:06;;;;;;;6.70;2.70;;;12.70;97.50;;;;;;5067238;28;20469;-62
2023/11/06 11:51:49;;;;;;;10.00;2.90;;;12.90;97.20;;;;;;5075514;28;20805;-63
2023/11/06 11:54:26;;;;;;;6.33;2.83;;;12.90;96.20;;;;;;5076210;28;20685;-63
2023/11/06 11:56:54;;;;;;;7.50;2.67;;;13.00;95.90;;;;;;5076713;28;20455;-63
2023/11/06 11:59:21;;;;;;;4.90;3.47;;;13.00;95.30;;;;;;5080852;28;20506;-64
2023/11/06 12:01:48;;;;;;;7.30;2.70;;;13.00;95.10;;;;;;5075704;28;20506;-61
2023/11/06 12:04:21;;;;;;;10.03;3.07;;;13.00;94.60;;;;;;5075733;28;20445;-64
2023/11/06 12:06:49;;;;;;;5.17;2.33;;;13.10;94.40;;;;;;5075116;28;20454;-63
2023/11/06 12:09:17;;;;;;;12.37;3.10;;;13.10;93.90;;;;;;5074563;28;20447;-60
2023/11/06 12:11:47;;;;;;;9.23;3.00;;;13.20;93.70;;;;;;5074418;28;20497;-63
2023/11/06 12:14:14;;;;;;;5.20;2.60;;;13.20;93.30;;;;;;5074527;28;20493;-63
2023/11/06 12:16:50;;;;;;;5.67;2.10;;;13.30;93.20;;;;;;5075693;28;20443;-64
2023/11/06 12:19:17;;;;;;;5.03;2.10;;;13.40;92.50;;;;;;5077801;28;20443;-63
2023/11/06 12:22:00;;;;;;;4.13;1.87;;;13.50;91.80;;;;;;5075387;28;20459;-63
2023/11/06 12:24:27;;;;;;;9.20;2.57;;;13.50;91.20;;;;;;5077383;28;20436;-63
2023/11/06 12:26:55;;;;;;;8.27;2.10;;;13.60;90.50;;;;;;5076193;28;20455;-63
2023/11/06 12:29:27;;;;;;;7.47;1.93;;;13.60;90.20;;;;;;5076822;28;20505;-63
2023/11/06 12:31:55;;;;;;;7.23;2.30;;;13.60;89.80;;;;;;5075468;28;20459;-63
2023/11/06 12:34:22;;;;;;;3.10;1.70;;;13.70;89.00;;;;;;5079508;28;20485;-63
2023/11/06 12:37:01;;;;;;;3.10;1.87;;;13.60;86.90;;;;;;5078927;28;20504;-63
2023/11/06 12:39:28;;;;;;;4.17;1.80;;;13.60;86.90;;;;;;5078665;28;20427;-63
2023/11/06 12:42:00;;;;;;;5.00;2.10;;;13.50;87.30;;;;;;5078931;28;20521;-63
2023/11/06 12:44:36;;;;;;;7.60;2.20;;;13.40;87.70;;;;;;5078773;28;20477;-60
2023/11/06 12:47:06;;;;;;;6.17;2.17;;;13.40;87.80;;;;;;5078323;28;20522;-65
2023/11/06 12:49:48;;;;;;;8.80;2.00;;;13.40;87.90;;;;;;5078702;28;20439;-62
2023/11/06 12:52:18;;;;;;;9.40;2.33;;;13.40;87.40;;;;;;5079926;28;20498;-63
2023/11/06 12:54:47;;;;;;;4.23;1.70;;;13.30;86.50;;;;;;5077348;28;20486;-62
2023/11/06 12:57:16;;;;;;;4.70;1.40;;;13.30;86.00;;;;;;5078846;28;20537;-63
2023/11/06 12:59:43;;;;;;;4.90;1.70;;;13.30;85.80;;;;;;5079207;28;20859;-62
2023/11/06 13:02:11;;;;;;;13.73;2.03;;;13.30;85.30;;;;;;5078890;28;20454;-62